createdAt,value
2022-09-23T00:01:58.502Z,3.17
2022-09-23T00:04:00.474Z,3.03
2022-09-23T00:06:05.364Z,3.75
2022-09-23T00:08:09.954Z,3.30
2022-09-23T00:10:11.839Z,3.08
2022-09-23T00:12:13.605Z,3.60
2022-09-23T00:14:15.339Z,3.25
2022-09-23T00:16:22.238Z,3.40
2022-09-23T00:18:24.124Z,3.20
2022-09-23T00:20:25.850Z,3.83
2022-09-23T00:22:27.480Z,2.78
2022-09-23T00:24:32.469Z,3.17
2022-09-23T00:26:34.201Z,3.47
2022-09-23T00:28:37.159Z,3.40
2022-09-23T00:30:41.189Z,3.33
2022-09-23T00:32:42.894Z,3.55
2022-09-23T00:34:44.914Z,3.45
2022-09-23T00:36:51.310Z,4.00
2022-09-23T00:38:54.076Z,4.10
2022-09-23T00:40:56.479Z,3.70
2022-09-23T00:42:58.311Z,4.15
2022-09-23T00:45:01.239Z,3.03
2022-09-23T00:47:03.072Z,3.38
2022-09-23T00:49:13.044Z,3.35
2022-09-23T00:51:20.175Z,3.90
2022-09-23T00:53:26.643Z,4.38
2022-09-23T00:55:33.569Z,4.13
2022-09-23T00:57:38.389Z,3.92
2022-09-23T00:59:40.324Z,3.75
2022-09-23T01:01:43.573Z,4.20
2022-09-23T01:03:46.547Z,4.07
2022-09-23T01:05:48.711Z,4.25
2022-09-23T01:07:50.880Z,4.60
2022-09-23T01:09:52.924Z,4.00
2022-09-23T01:12:04.271Z,4.13
2022-09-23T01:14:22.911Z,4.20
2022-09-23T01:16:27.012Z,4.82
2022-09-23T01:18:32.045Z,4.53
2022-09-23T01:20:42.103Z,4.57
2022-09-23T01:22:49.861Z,4.68
2022-09-23T01:24:54.016Z,4.70
2022-09-23T01:27:01.079Z,4.28
2022-09-23T01:29:15.249Z,4.05
2022-09-23T01:31:27.101Z,4.28
2022-09-23T01:33:37.266Z,4.63
2022-09-23T01:35:46.049Z,4.95
2022-09-23T01:37:55.995Z,4.43
2022-09-23T01:40:14.498Z,4.40
2022-09-23T01:42:27.550Z,4.53
2022-09-23T01:44:38.664Z,5.13
2022-09-23T01:47:11.037Z,4.75
2022-09-23T01:49:20.530Z,4.78
2022-09-23T01:51:31.315Z,4.43
2022-09-23T01:55:47.644Z,4.05
2022-09-23T01:58:00.404Z,5.32
2022-09-23T02:00:11.144Z,5.05
2022-09-23T02:04:31.285Z,4.63
2022-09-23T02:06:42.040Z,4.93
2022-09-23T02:10:54.690Z,4.50
2022-09-23T02:13:04.610Z,4.85
2022-09-23T02:15:17.750Z,5.03
2022-09-23T02:17:31.172Z,5.13
2022-09-23T02:19:40.524Z,5.03
2022-09-23T02:21:49.420Z,5.65
2022-09-23T02:23:59.430Z,5.28
2022-09-23T02:26:11.995Z,4.80
2022-09-23T02:28:24.275Z,4.50
2022-09-23T02:30:31.905Z,4.70
2022-09-23T02:32:49.525Z,5.25
2022-09-23T02:35:11.739Z,4.43
2022-09-23T02:37:35.689Z,5.57
2022-09-23T02:40:01.377Z,4.47
2022-09-23T02:42:10.176Z,4.50
2022-09-23T02:44:16.400Z,4.82
2022-09-23T02:46:18.753Z,5.30
2022-09-23T02:48:27.220Z,5.00
2022-09-23T02:50:30.987Z,5.18
2022-09-23T02:52:33.610Z,5.07
2022-09-23T02:54:37.565Z,4.88
2022-09-23T02:56:40.274Z,5.70
2022-09-23T02:58:42.859Z,4.75
2022-09-23T03:00:54.870Z,5.07
2022-09-23T03:03:15.841Z,4.88
2022-09-23T03:05:24.866Z,5.20
2022-09-23T03:07:46.060Z,5.25
2022-09-23T03:09:59.870Z,5.22
2022-09-23T03:12:22.351Z,5.70
2022-09-23T03:14:36.741Z,5.57
2022-09-23T03:16:51.111Z,5.30
2022-09-23T03:19:06.164Z,4.85
2022-09-23T03:21:20.628Z,5.22
2022-09-23T03:23:28.050Z,5.57
2022-09-23T03:25:35.035Z,4.75
2022-09-23T03:27:39.639Z,4.68
2022-09-23T03:29:47.415Z,5.78
2022-09-23T03:31:49.385Z,5.03
2022-09-23T03:33:55.786Z,5.38
2022-09-23T03:36:15.661Z,6.05
2022-09-23T03:38:17.503Z,6.18
2022-09-23T03:40:26.999Z,5.25
2022-09-23T03:42:31.770Z,5.13
2022-09-23T03:44:39.711Z,5.47
2022-09-23T03:46:44.529Z,5.35
2022-09-23T03:48:46.355Z,5.63
2022-09-23T03:50:49.785Z,5.32
2022-09-23T03:52:52.139Z,5.32
2022-09-23T03:54:55.467Z,5.72
2022-09-23T03:56:58.871Z,5.22
2022-09-23T03:59:01.172Z,5.72
2022-09-23T04:01:04.436Z,5.32
2022-09-23T04:03:11.439Z,5.72
2022-09-23T04:05:16.300Z,5.68
2022-09-23T04:07:18.743Z,5.55
2022-09-23T04:09:22.437Z,5.38
2022-09-23T04:11:26.170Z,5.35
2022-09-23T04:13:29.545Z,5.72
2022-09-23T04:15:31.979Z,5.53
2022-09-23T04:17:34.039Z,4.88
2022-09-23T04:19:36.022Z,6.07
2022-09-23T04:21:38.176Z,5.40
2022-09-23T04:23:40.109Z,5.57
2022-09-23T04:25:47.276Z,5.47
2022-09-23T04:27:49.389Z,5.03
2022-09-23T04:29:52.075Z,5.60
2022-09-23T04:31:54.530Z,5.38
2022-09-23T04:33:57.297Z,5.45
2022-09-23T04:35:59.359Z,5.60
2022-09-23T04:38:01.202Z,5.78
2022-09-23T04:40:03.600Z,5.30
2022-09-23T04:42:05.710Z,5.57
2022-09-23T04:44:07.760Z,5.25
2022-09-23T04:46:12.215Z,5.47
2022-09-23T04:48:14.090Z,5.32
2022-09-23T04:50:18.884Z,5.43
2022-09-23T04:52:20.729Z,6.03
2022-09-23T04:54:22.444Z,5.75
2022-09-23T04:56:30.095Z,5.47
2022-09-23T04:58:35.700Z,5.72
2022-09-23T05:00:39.962Z,5.75
2022-09-23T05:02:52.546Z,5.78
2022-09-23T05:04:55.140Z,5.90
2022-09-23T05:07:02.859Z,5.45
2022-09-23T05:09:09.484Z,5.50
2022-09-23T05:11:11.449Z,4.95
2022-09-23T05:13:13.170Z,5.68
2022-09-23T05:15:16.365Z,5.55
2022-09-23T05:17:18.250Z,5.90
2022-09-23T05:19:20.172Z,5.80
2022-09-23T05:21:25.104Z,5.60
2022-09-23T05:23:28.005Z,4.55
2022-09-23T05:25:30.377Z,5.40
2022-09-23T05:27:32.341Z,4.13
2022-09-23T05:29:35.648Z,4.10
2022-09-23T05:31:38.949Z,3.70
2022-09-23T05:33:45.389Z,3.25
2022-09-23T05:35:54.270Z,3.85
2022-09-23T05:37:59.661Z,4.05
2022-09-23T05:40:02.333Z,3.20
2022-09-23T05:42:04.876Z,3.03
2022-09-23T05:44:13.946Z,3.38
2022-09-23T05:46:20.006Z,3.03
2022-09-23T05:48:22.597Z,3.70
2022-09-23T05:50:26.121Z,4.05
2022-09-23T05:52:30.267Z,4.30
2022-09-23T05:54:35.293Z,3.90
2022-09-23T05:56:48.697Z,4.10
2022-09-23T05:58:59.502Z,4.32
2022-09-23T06:01:09.042Z,3.67
2022-09-23T06:03:15.702Z,3.78
2022-09-23T06:05:18.557Z,4.20
2022-09-23T06:07:20.516Z,4.32
2022-09-23T06:09:22.159Z,3.97
2022-09-23T06:11:35.296Z,4.00
2022-09-23T06:13:46.221Z,4.43
2022-09-23T06:15:49.718Z,4.40
2022-09-23T06:17:53.530Z,4.18
2022-09-23T06:19:55.165Z,4.70
2022-09-23T06:22:03.643Z,4.70
2022-09-23T06:24:07.001Z,4.80
2022-09-23T06:26:15.834Z,4.57
2022-09-23T06:28:22.404Z,4.60
2022-09-23T06:30:33.600Z,3.50
2022-09-23T06:32:57.999Z,4.97
2022-09-23T06:35:04.716Z,4.45
2022-09-23T06:37:19.361Z,5.10
2022-09-23T06:39:24.458Z,5.50
2022-09-23T06:41:26.073Z,4.90
2022-09-23T06:43:33.097Z,5.93
2022-09-23T06:45:45.165Z,5.30
2022-09-23T06:47:47.209Z,4.93
2022-09-23T06:50:06.616Z,5.88
2022-09-23T06:52:08.524Z,5.22
2022-09-23T06:54:34.046Z,5.82
2022-09-23T06:56:39.144Z,5.68
2022-09-23T06:58:46.256Z,5.72
2022-09-23T07:00:54.828Z,6.53
2022-09-23T07:03:23.475Z,6.65
2022-09-23T07:05:45.039Z,6.63
2022-09-23T07:07:46.744Z,6.53
2022-09-23T07:10:06.884Z,6.57
2022-09-23T07:12:08.669Z,7.45
2022-09-23T07:14:10.325Z,6.97
2022-09-23T07:16:36.810Z,7.80
2022-09-23T07:18:39.319Z,7.38
2022-09-23T07:20:58.846Z,7.80
2022-09-23T07:23:17.971Z,7.18
2022-09-23T07:25:23.183Z,7.35
2022-09-23T07:29:46.804Z,7.50
2022-09-23T07:31:50.077Z,7.93
2022-09-23T07:33:56.325Z,8.05
2022-09-23T07:35:58.100Z,7.55
2022-09-23T07:38:00.785Z,8.25
2022-09-23T07:40:23.611Z,7.50
2022-09-23T07:42:35.602Z,7.82
2022-09-23T07:45:04.175Z,8.52
2022-09-23T07:47:06.388Z,8.48
2022-09-23T07:49:08.453Z,8.43
2022-09-23T07:51:26.087Z,8.35
2022-09-23T07:53:37.595Z,8.05
2022-09-23T07:55:39.231Z,8.60
2022-09-23T07:57:49.620Z,8.90
2022-09-23T08:02:14.708Z,7.88
2022-09-23T08:04:33.134Z,8.07
2022-09-23T08:06:34.993Z,7.63
2022-09-23T08:08:44.928Z,7.78
2022-09-23T08:10:57.296Z,7.93
2022-09-23T08:13:07.312Z,7.90
2022-09-23T08:15:12.736Z,8.20
2022-09-23T08:17:14.983Z,7.65
2022-09-23T08:19:27.470Z,7.38
2022-09-23T08:21:29.971Z,8.85
2022-09-23T08:23:33.973Z,8.95
2022-09-23T08:25:36.229Z,10.02
2022-09-23T08:27:39.404Z,10.05
2022-09-23T08:29:41.333Z,9.63
2022-09-23T08:31:44.043Z,10.30
2022-09-23T08:33:45.974Z,11.13
2022-09-23T08:35:47.830Z,10.90
2022-09-23T08:37:50.239Z,11.05
2022-09-23T08:39:52.139Z,11.20
2022-09-23T08:41:58.389Z,10.68
2022-09-23T08:44:20.731Z,10.25
2022-09-23T08:46:29.066Z,11.13
2022-09-23T08:48:42.263Z,10.70
2022-09-23T08:50:50.486Z,10.85
2022-09-23T08:53:05.171Z,10.20
2022-09-23T08:55:13.204Z,10.52
2022-09-23T08:57:31.702Z,10.32
2022-09-23T08:59:43.090Z,9.80
2022-09-23T09:01:48.140Z,11.15
2022-09-23T09:03:54.342Z,11.35
2022-09-23T09:05:56.989Z,12.18
2022-09-23T09:08:02.248Z,11.18
2022-09-23T09:10:23.642Z,11.70
2022-09-23T09:12:38.983Z,10.95
2022-09-23T09:14:44.540Z,11.57
2022-09-23T09:17:02.175Z,11.73
2022-09-23T09:19:08.872Z,11.88
2022-09-23T09:21:14.893Z,11.00
2022-09-23T09:23:27.100Z,11.80
2022-09-23T09:25:38.803Z,10.85
2022-09-23T09:27:41.430Z,10.80
2022-09-23T09:29:49.907Z,10.25
2022-09-23T09:31:52.170Z,10.70
2022-09-23T09:33:58.130Z,11.70
2022-09-23T09:36:09.169Z,11.55
2022-09-23T09:38:11.183Z,11.73
2022-09-23T09:40:18.619Z,12.07
2022-09-23T09:42:32.536Z,12.63
2022-09-23T09:44:47.081Z,12.60
2022-09-23T09:47:01.879Z,11.77
2022-09-23T09:49:24.929Z,13.07
2022-09-23T09:51:31.564Z,11.55
2022-09-23T09:53:36.565Z,12.75
2022-09-23T09:55:40.280Z,11.13
2022-09-23T09:57:46.929Z,10.35
2022-09-23T09:59:48.968Z,10.13
2022-09-23T10:02:22.905Z,9.30
2022-09-23T10:04:36.608Z,9.65
2022-09-23T10:06:38.501Z,9.38
2022-09-23T10:08:41.204Z,9.23
2022-09-23T10:10:56.611Z,9.88
2022-09-23T10:13:15.102Z,10.10
2022-09-23T10:15:33.347Z,9.13
2022-09-23T10:17:39.152Z,9.85
2022-09-23T10:19:47.790Z,8.57
2022-09-23T10:21:59.979Z,9.15
2022-09-23T10:24:05.909Z,8.05
2022-09-23T10:26:24.618Z,6.97
2022-09-23T10:28:47.910Z,6.75
2022-09-23T10:31:06.738Z,6.85
2022-09-23T10:33:27.232Z,6.03
2022-09-23T10:35:33.672Z,5.88
2022-09-23T10:37:41.514Z,5.00
2022-09-23T10:39:53.510Z,4.30
2022-09-23T10:42:19.386Z,4.57
2022-09-23T10:44:50.297Z,5.00
2022-09-23T10:49:10.916Z,4.20
2022-09-23T10:51:33.598Z,5.10
2022-09-23T10:53:42.161Z,4.45
2022-09-23T10:55:52.112Z,4.75
2022-09-23T10:58:13.453Z,3.90
2022-09-23T11:00:27.843Z,3.42
2022-09-23T11:02:43.074Z,3.42
2022-09-23T11:05:05.497Z,2.85
2022-09-23T11:07:15.315Z,2.95
2022-09-23T11:09:31.376Z,2.70
2022-09-23T11:11:52.934Z,3.30
2022-09-23T11:14:05.344Z,2.50
2022-09-23T11:16:18.668Z,3.22
2022-09-23T11:18:34.950Z,3.45
2022-09-23T11:20:38.103Z,3.05
2022-09-23T11:23:03.263Z,3.53
2022-09-23T11:25:24.801Z,3.70
2022-09-23T11:27:42.574Z,3.40
2022-09-23T11:29:57.227Z,2.72
2022-09-23T11:32:20.738Z,3.97
2022-09-23T11:34:34.324Z,3.40
2022-09-23T11:36:45.522Z,3.55
2022-09-23T11:38:51.032Z,3.13
2022-09-23T11:40:58.777Z,3.17
2022-09-23T11:43:08.896Z,2.92
2022-09-23T11:45:19.251Z,2.65
2022-09-23T11:47:26.407Z,2.90
2022-09-23T11:49:36.939Z,3.40
2022-09-23T11:51:49.027Z,3.10
2022-09-23T11:54:00.049Z,2.92
2022-09-23T11:56:08.648Z,3.15
2022-09-23T11:58:24.924Z,2.40
2022-09-23T12:00:36.251Z,2.72
2022-09-23T12:03:04.796Z,2.33
2022-09-23T12:05:16.416Z,1.80
2022-09-23T12:07:26.223Z,1.70
2022-09-23T12:09:58.161Z,2.08
2022-09-23T12:12:14.045Z,1.63
2022-09-23T12:14:21.855Z,1.42
2022-09-23T12:16:33.935Z,1.70
2022-09-23T12:18:46.595Z,1.83
2022-09-23T12:21:05.840Z,1.70
2022-09-23T12:23:30.198Z,2.08
2022-09-23T12:25:56.579Z,1.90
2022-09-23T12:28:05.407Z,1.33
2022-09-23T12:30:23.155Z,1.40
2022-09-23T12:32:26.708Z,1.15
2022-09-23T12:34:30.595Z,0.98
2022-09-23T12:36:35.667Z,1.40
2022-09-23T12:38:41.929Z,1.20
2022-09-23T12:40:44.971Z,1.20
2022-09-23T12:42:48.690Z,1.40
2022-09-23T12:45:11.258Z,1.27
2022-09-23T12:47:21.303Z,0.80
2022-09-23T12:49:44.610Z,1.20
2022-09-23T12:52:16.370Z,1.27
2022-09-23T12:54:24.252Z,1.15
2022-09-23T12:56:51.756Z,1.27
2022-09-23T12:58:54.270Z,1.83
2022-09-23T13:01:08.264Z,2.10
2022-09-23T13:03:22.585Z,2.08
2022-09-23T13:05:38.321Z,1.88
2022-09-23T13:07:50.366Z,2.00
2022-09-23T13:09:59.066Z,2.10
2022-09-23T13:12:03.851Z,2.17
2022-09-23T13:14:07.361Z,2.05
2022-09-23T13:16:12.156Z,2.13
2022-09-23T13:18:24.385Z,2.28
2022-09-23T13:20:38.918Z,2.63
2022-09-23T13:23:02.897Z,2.70
2022-09-23T13:25:22.700Z,2.67
2022-09-23T13:27:33.752Z,2.90
2022-09-23T13:29:43.202Z,2.83
2022-09-23T13:31:47.300Z,3.22
2022-09-23T13:33:55.086Z,2.55
2022-09-23T13:36:03.242Z,1.90
2022-09-23T13:38:21.395Z,2.47
2022-09-23T13:40:29.131Z,2.33
2022-09-23T13:42:31.832Z,1.85
2022-09-23T13:44:34.289Z,2.63
2022-09-23T13:46:46.283Z,1.95
2022-09-23T13:48:52.103Z,2.40
2022-09-23T13:50:54.843Z,2.20
2022-09-23T13:53:02.149Z,2.58
2022-09-23T13:55:04.331Z,2.67
2022-09-23T13:57:06.204Z,1.90
2022-09-23T13:59:30.719Z,1.80
2022-09-23T14:01:35.697Z,2.00
2022-09-23T14:03:39.508Z,2.00
2022-09-23T14:05:42.060Z,2.20
2022-09-23T14:07:45.097Z,1.80
2022-09-23T14:09:49.743Z,1.90
2022-09-23T14:11:52.296Z,2.05
2022-09-23T14:13:55.235Z,1.80
2022-09-23T14:15:59.875Z,1.77
2022-09-23T14:18:06.490Z,2.00
2022-09-23T14:20:16.039Z,2.70
2022-09-23T14:22:28.060Z,2.13
2022-09-23T14:24:30.428Z,2.35
2022-09-23T14:26:32.923Z,1.90
2022-09-23T14:28:35.103Z,1.65
2022-09-23T14:30:38.648Z,2.30
2022-09-23T14:32:44.134Z,2.47
2022-09-23T14:35:07.036Z,2.40
2022-09-23T14:37:30.010Z,2.22
2022-09-23T14:39:32.001Z,2.00
2022-09-23T14:41:39.084Z,2.35
2022-09-23T14:43:49.027Z,2.00
2022-09-23T14:45:55.096Z,2.37
2022-09-23T14:48:01.063Z,2.75
2022-09-23T14:50:12.679Z,2.60
2022-09-23T14:52:14.789Z,3.03
2022-09-23T14:54:35.888Z,2.92
2022-09-23T14:56:42.322Z,2.50
2022-09-23T14:58:55.836Z,2.70
2022-09-23T15:01:00.827Z,3.03
2022-09-23T15:03:12.870Z,3.15
2022-09-23T15:05:22.576Z,3.20
2022-09-23T15:07:27.236Z,2.70
2022-09-23T15:09:36.485Z,3.35
2022-09-23T15:11:41.290Z,3.22
2022-09-23T15:13:47.070Z,3.00
2022-09-23T15:15:52.832Z,2.97
2022-09-23T15:17:55.232Z,3.25
2022-09-23T15:20:02.607Z,3.60
2022-09-23T15:22:11.529Z,3.38
2022-09-23T15:24:32.651Z,3.97
2022-09-23T15:26:47.556Z,3.60
2022-09-23T15:28:52.236Z,4.10
2022-09-23T15:30:55.559Z,3.58
2022-09-23T15:32:57.934Z,3.70
2022-09-23T15:35:00.029Z,3.83
2022-09-23T15:37:02.098Z,3.88
2022-09-23T15:39:07.310Z,4.03
2022-09-23T15:41:09.495Z,3.67
2022-09-23T15:43:20.768Z,4.00
2022-09-23T15:45:34.081Z,4.18
2022-09-23T15:47:37.977Z,4.20
2022-09-23T15:49:40.502Z,3.88
2022-09-23T15:51:45.051Z,3.60
2022-09-23T15:53:48.034Z,4.50
2022-09-23T15:55:51.365Z,4.25
2022-09-23T15:57:53.705Z,4.38
2022-09-23T15:59:58.705Z,4.35
2022-09-23T16:02:06.098Z,4.15
2022-09-23T16:04:10.916Z,4.00
2022-09-23T16:06:14.732Z,3.70
2022-09-23T16:08:19.943Z,3.67
2022-09-23T16:10:23.255Z,3.40
2022-09-23T16:12:25.653Z,3.42
2022-09-23T16:14:31.731Z,2.90
2022-09-23T16:16:33.915Z,3.70
2022-09-23T16:18:37.242Z,3.15
2022-09-23T16:20:43.586Z,2.95
2022-09-23T16:23:00.244Z,2.90
2022-09-23T16:25:02.743Z,2.60
2022-09-23T16:27:07.904Z,3.10
2022-09-23T16:29:11.691Z,2.58
2022-09-23T16:31:16.453Z,2.88
2022-09-23T16:33:18.731Z,2.40
2022-09-23T16:35:23.407Z,2.10
2022-09-23T16:37:27.183Z,2.33
2022-09-23T16:39:29.286Z,2.47
2022-09-23T16:41:31.930Z,2.35
2022-09-23T16:43:39.783Z,1.63
2022-09-23T16:45:42.007Z,2.03
2022-09-23T16:47:46.514Z,1.88
2022-09-23T16:49:48.529Z,2.30
2022-09-23T16:51:51.282Z,1.77
2022-09-23T16:53:55.720Z,2.03
2022-09-23T16:55:58.626Z,2.33
2022-09-23T16:58:01.517Z,2.20
2022-09-23T17:00:16.375Z,2.25
2022-09-23T17:02:28.800Z,2.05
2022-09-23T17:04:31.626Z,2.10
2022-09-23T17:06:34.106Z,2.50
2022-09-23T17:08:36.339Z,3.58
2022-09-23T17:10:38.291Z,2.40
2022-09-23T17:12:40.477Z,4.05
2022-09-23T17:14:42.645Z,2.95
2022-09-23T17:16:46.487Z,1.80
2022-09-23T17:18:48.773Z,1.13
2022-09-23T17:21:01.903Z,1.13
2022-09-23T17:23:05.783Z,1.50
2022-09-23T17:25:09.523Z,1.35
2022-09-23T17:27:11.544Z,1.08
2022-09-23T17:29:15.218Z,1.15
2022-09-23T17:31:17.569Z,1.15
2022-09-23T17:33:22.627Z,1.30
2022-09-23T17:35:24.646Z,0.95
2022-09-23T17:37:26.776Z,0.80
2022-09-23T17:39:28.860Z,1.20
2022-09-23T17:41:30.890Z,0.95
2022-09-23T17:43:33.685Z,1.02
2022-09-23T17:45:37.357Z,1.08
2022-09-23T17:47:41.835Z,1.20
2022-09-23T17:49:45.207Z,1.10
2022-09-23T17:51:47.346Z,1.10
2022-09-23T17:53:50.304Z,1.30
2022-09-23T17:55:57.614Z,1.40
2022-09-23T17:58:00.575Z,1.30
2022-09-23T18:00:02.862Z,1.45
2022-09-23T18:02:05.002Z,1.20
2022-09-23T18:04:07.522Z,1.20
2022-09-23T18:06:14.039Z,1.20
2022-09-23T18:08:16.020Z,1.35
2022-09-23T18:10:17.995Z,1.42
2022-09-23T18:12:19.954Z,1.30
2022-09-23T18:14:22.989Z,1.20
2022-09-23T18:16:27.930Z,1.10
2022-09-23T18:18:30.005Z,1.20
2022-09-23T18:20:32.587Z,1.17
2022-09-23T18:22:34.514Z,0.98
2022-09-23T18:24:40.223Z,1.67
2022-09-23T18:26:43.234Z,1.73
2022-09-23T18:28:45.515Z,1.35
2022-09-23T18:30:55.615Z,1.63
2022-09-23T18:32:58.058Z,1.77
2022-09-23T18:35:00.351Z,1.67
2022-09-23T18:37:02.476Z,1.90
2022-09-23T18:39:05.210Z,1.25
2022-09-23T18:41:08.231Z,1.42
2022-09-23T18:43:10.260Z,1.50
2022-09-23T18:45:12.173Z,1.80
2022-09-23T18:47:34.057Z,1.83
2022-09-23T18:49:45.364Z,1.50
2022-09-23T18:51:50.926Z,1.58
2022-09-23T18:53:57.705Z,1.65
2022-09-23T18:55:59.632Z,1.50
2022-09-23T18:58:02.217Z,1.90
2022-09-23T19:00:04.655Z,1.90
2022-09-23T19:02:06.743Z,2.38
2022-09-23T19:04:09.045Z,1.65
2022-09-23T19:06:13.408Z,1.65
2022-09-23T19:08:15.403Z,1.75
2022-09-23T19:10:19.323Z,2.17
2022-09-23T19:12:22.689Z,2.45
2022-09-23T19:14:24.676Z,1.95
2022-09-23T19:16:27.463Z,1.70
2022-09-23T19:18:30.607Z,2.20
2022-09-23T19:20:32.789Z,1.90
2022-09-23T19:22:34.670Z,1.67
2022-09-23T19:24:36.775Z,1.80
2022-09-23T19:26:40.631Z,1.83
2022-09-23T19:28:47.836Z,1.42
2022-09-23T19:30:50.224Z,1.80
2022-09-23T19:32:52.301Z,2.13
2022-09-23T19:34:54.245Z,1.58
2022-09-23T19:36:58.103Z,1.83
2022-09-23T19:39:04.422Z,2.28
2022-09-23T19:41:08.282Z,1.60
2022-09-23T19:43:10.438Z,1.65
2022-09-23T19:45:12.510Z,1.63
2022-09-23T19:47:17.672Z,2.00
2022-09-23T19:49:19.697Z,1.20
2022-09-23T19:51:22.107Z,1.30
2022-09-23T19:53:28.043Z,1.80
2022-09-23T19:55:31.454Z,2.20
2022-09-23T19:57:33.685Z,1.77
2022-09-23T19:59:35.522Z,1.83
2022-09-23T20:01:37.494Z,1.95
2022-09-23T20:03:39.431Z,2.33
2022-09-23T20:05:41.486Z,2.08
2022-09-23T20:07:43.718Z,2.42
2022-09-23T20:09:45.685Z,2.80
2022-09-23T20:11:47.587Z,2.13
2022-09-23T20:13:53.944Z,2.25
2022-09-23T20:15:56.035Z,2.25
2022-09-23T20:17:58.361Z,2.35
2022-09-23T20:20:00.834Z,2.33
2022-09-23T20:22:12.486Z,2.05
2022-09-23T20:24:14.425Z,2.65
2022-09-23T20:26:25.505Z,2.08
2022-09-23T20:28:27.712Z,2.20
2022-09-23T20:30:29.847Z,2.88
2022-09-23T20:32:31.914Z,2.83
2022-09-23T20:34:34.592Z,1.77
2022-09-23T20:36:36.587Z,2.20
2022-09-23T20:38:38.908Z,2.35
2022-09-23T20:40:40.888Z,2.70
2022-09-23T20:42:43.100Z,3.30
2022-09-23T20:44:46.080Z,2.45
2022-09-23T20:46:48.923Z,2.40
2022-09-23T20:48:51.018Z,1.88
2022-09-23T20:50:53.132Z,2.03
2022-09-23T20:52:55.970Z,2.30
2022-09-23T20:54:58.701Z,2.10
2022-09-23T20:57:01.486Z,2.13
2022-09-23T20:59:05.391Z,2.20
2022-09-23T21:01:11.084Z,2.28
2022-09-23T21:03:13.441Z,2.00
2022-09-23T21:05:16.065Z,2.50
2022-09-23T21:07:18.270Z,1.88
2022-09-23T21:09:20.685Z,2.00
2022-09-23T21:11:22.954Z,1.70
2022-09-23T21:13:25.313Z,2.38
2022-09-23T21:15:28.112Z,1.88
2022-09-23T21:17:30.035Z,1.75
2022-09-23T21:19:32.521Z,1.73
2022-09-23T21:21:35.373Z,1.58
2022-09-23T21:23:39.268Z,1.70
2022-09-23T21:25:41.145Z,1.70
2022-09-23T21:27:43.513Z,1.73
2022-09-23T21:29:45.517Z,2.03
2022-09-23T21:31:49.806Z,1.38
2022-09-23T21:33:55.154Z,2.67
2022-09-23T21:36:01.783Z,1.30
2022-09-23T21:38:03.734Z,1.70
2022-09-23T21:40:16.612Z,1.52
2022-09-23T21:42:18.919Z,1.58
2022-09-23T21:44:22.634Z,1.55
2022-09-23T21:46:25.672Z,1.58
2022-09-23T21:48:30.585Z,1.50
2022-09-23T21:50:32.673Z,1.50
2022-09-23T21:52:34.734Z,1.80
2022-09-23T21:54:36.814Z,1.95
2022-09-23T21:56:38.774Z,1.30
2022-09-23T21:58:42.384Z,1.70
2022-09-23T22:00:44.215Z,1.10
2022-09-23T22:02:46.131Z,1.00
2022-09-23T22:04:48.259Z,1.10
2022-09-23T22:06:50.103Z,0.90
2022-09-23T22:08:55.614Z,1.00
2022-09-23T22:10:57.453Z,1.05
2022-09-23T22:12:59.404Z,0.98
2022-09-23T22:15:01.349Z,0.73
2022-09-23T22:17:04.982Z,1.10
2022-09-23T22:19:07.323Z,1.00
2022-09-23T22:21:09.293Z,1.30
2022-09-23T22:23:11.291Z,1.63
2022-09-23T22:25:13.264Z,1.20
2022-09-23T22:27:17.932Z,1.98
2022-09-23T22:29:30.825Z,1.35
2022-09-23T22:31:42.486Z,1.25
2022-09-23T22:33:44.502Z,1.27
2022-09-23T22:35:46.593Z,1.40
2022-09-23T22:37:48.513Z,1.10
2022-09-23T22:39:50.413Z,1.58
2022-09-23T22:41:52.652Z,1.05
2022-09-23T22:43:54.462Z,0.90
2022-09-23T22:45:56.472Z,1.17
2022-09-23T22:47:58.272Z,1.33
2022-09-23T22:50:01.314Z,0.95
2022-09-23T22:52:08.175Z,1.30
2022-09-23T22:54:12.392Z,1.27
2022-09-23T22:56:15.712Z,1.55
2022-09-23T22:58:31.784Z,0.70
2022-09-23T23:00:34.684Z,1.20
2022-09-23T23:02:36.986Z,1.40
2022-09-23T23:04:38.933Z,0.85
2022-09-23T23:06:41.593Z,1.02
2022-09-23T23:08:43.631Z,1.20
2022-09-23T23:10:45.578Z,0.68
2022-09-23T23:12:49.408Z,1.02
2022-09-23T23:14:51.821Z,0.68
2022-09-23T23:16:55.316Z,0.82
2022-09-23T23:18:57.905Z,1.73
2022-09-23T23:21:10.907Z,1.08
2022-09-23T23:23:13.131Z,0.70
2022-09-23T23:25:15.450Z,0.90
2022-09-23T23:27:17.631Z,0.77
2022-09-23T23:29:21.987Z,1.27
2022-09-23T23:31:26.913Z,0.80
2022-09-23T23:33:28.865Z,0.80
2022-09-23T23:35:31.228Z,0.50
2022-09-23T23:37:33.086Z,0.55
2022-09-23T23:39:35.352Z,0.60
2022-09-23T23:41:38.085Z,0.63
2022-09-23T23:43:41.560Z,0.90
2022-09-23T23:45:43.850Z,1.40
2022-09-23T23:47:46.544Z,1.00
2022-09-23T23:49:48.611Z,1.30
2022-09-23T23:51:50.584Z,0.60
2022-09-23T23:53:54.177Z,0.93
2022-09-23T23:55:56.702Z,0.95
2022-09-23T23:58:02.361Z,0.60
